Terminal Aerodrome Forecast
Issued by NWS

Home | Current Version | Previous Version | Text Only | Print | Product List | Glossary On
Versions: 1 2 3 4 5 6 7 8 9 10 11 12 13 14 15 16
000
FTUS42 KGSP 290110 AAA
TAFGMU
TAF AMD
KGMU 290110Z 2901/2924 23004KT 4SM -DZ BR OVC003
      TEMPO 2901/2904 1 1/2SM -DZ BR OVC002
     FM290400 35003KT 4SM -RA BR OVC007
     FM290600 02004KT 2SM -RA BR OVC004
     FM291300 05003KT 4SM -RA BR OVC010
     FM291500 04004KT 4SM BR OVC004
     FM291800 00000KT P6SM OVC007=

USA.gov is the U.S. government's official web portal to all federal, state and local government web resources and services.